Time;durP1;ratioP1;P1;durP2;ratioP2;P2;SDS_P1;SDS_P2;PMS_P1;PMS_P2;Temp;Humidity;BMP_temperature;BMP_pressure;BME280_temperature;BME280_humidity;BME280_pressure;Samples;Min_cycle;Max_cycle;Signal;HPM_P1;HPM_P2
2023/06/12 00:01:49;;;;;;;6.15;2.83;;;27.40;99.90;;;;;;4976646;28;20114;-56
2023/06/12 00:04:15;;;;;;;7.47;2.95;;;27.40;99.90;;;;;;4973010;28;20178;-56
2023/06/12 00:06:41;;;;;;;7.28;2.85;;;27.40;99.90;;;;;;4975790;28;20384;-57
2023/06/12 00:09:07;;;;;;;7.90;2.58;;;27.30;99.90;;;;;;4976523;28;20039;-56
2023/06/12 00:11:33;;;;;;;6.90;2.17;;;27.30;99.90;;;;;;4976549;28;20023;-56
2023/06/12 00:13:59;;;;;;;9.02;2.75;;;27.30;99.90;;;;;;4971961;28;20492;-56
2023/06/12 00:16:25;;;;;;;6.82;3.45;;;27.30;99.90;;;;;;4976132;28;20015;-56
2023/06/12 00:18:52;;;;;;;8.27;2.83;;;27.30;99.90;;;;;;4976609;28;20031;-57
2023/06/12 00:21:22;;;;;;;6.13;2.45;;;27.30;99.90;;;;;;4974540;28;20170;-56
2023/06/12 00:23:49;;;;;;;7.15;2.58;;;27.30;99.90;;;;;;4974756;28;20027;-56
2023/06/12 00:26:14;;;;;;;6.57;2.47;;;27.30;99.90;;;;;;4976461;28;20019;-56
2023/06/12 00:28:40;;;;;;;7.32;2.60;;;27.30;99.90;;;;;;4976030;28;20038;-56
2023/06/12 00:31:06;;;;;;;8.15;2.95;;;27.30;99.90;;;;;;4974646;28;20055;-57
2023/06/12 00:33:32;;;;;;;6.78;3.05;;;27.30;99.90;;;;;;4975199;28;20499;-56
2023/06/12 00:35:57;;;;;;;8.27;2.55;;;27.30;99.90;;;;;;4976075;28;20038;-57
2023/06/12 00:38:23;;;;;;;11.80;3.28;;;27.30;99.90;;;;;;4975942;28;20033;-57
2023/06/12 00:40:49;;;;;;;7.75;2.80;;;27.30;99.90;;;;;;4975080;28;20037;-57
2023/06/12 00:43:15;;;;;;;7.45;2.83;;;27.30;99.90;;;;;;4976630;28;20077;-57
2023/06/12 00:45:42;;;;;;;9.05;2.63;;;27.30;99.90;;;;;;4976141;28;20023;-58
2023/06/12 00:48:08;;;;;;;9.63;3.20;;;27.30;99.90;;;;;;4975726;28;20108;-57
2023/06/12 00:50:35;;;;;;;10.43;3.42;;;27.30;99.90;;;;;;4974562;28;20070;-58
2023/06/12 00:53:01;;;;;;;5.88;2.50;;;27.30;99.90;;;;;;4975752;28;20026;-58
2023/06/12 00:55:30;;;;;;;9.38;3.25;;;27.30;99.90;;;;;;4975780;28;20093;-58
2023/06/12 00:57:56;;;;;;;8.02;2.72;;;27.30;99.90;;;;;;4975646;28;20349;-58
2023/06/12 01:00:23;;;;;;;7.65;2.85;;;27.20;99.90;;;;;;4987958;23;20025;-53
2023/06/12 01:02:55;;;;;;;7.22;2.75;;;27.20;99.90;;;;;;4956547;28;20031;-52
2023/06/12 01:05:33;;;;;;;4.80;2.50;;;27.20;99.90;;;;;;4956315;29;20543;-53
2023/06/12 01:08:10;;;;;;;10.05;3.05;;;27.20;99.90;;;;;;4956161;29;20050;-52
2023/06/12 01:10:48;;;;;;;6.65;2.70;;;27.30;99.90;;;;;;4956154;29;20543;-52
2023/06/12 01:13:16;;;;;;;;;;;27.30;99.90;;;;;;4956538;29;20042;-51
2023/06/12 01:15:42;;;;;;;9.43;3.42;;;27.20;99.90;;;;;;4956072;29;19914;-52
2023/06/12 01:18:08;;;;;;;4.25;2.38;;;27.20;99.90;;;;;;4955996;29;20027;-51
2023/06/12 01:20:35;;;;;;;7.30;2.83;;;27.20;99.90;;;;;;4956083;29;20027;-51
2023/06/12 01:23:28;;;;;;;7.38;2.70;;;27.20;99.90;;;;;;4955972;29;20023;-52
2023/06/12 01:26:33;;;;;;;4.80;2.30;;;27.20;99.90;;;;;;4956040;29;20453;-51
2023/06/12 01:29:32;;;;;;;5.93;2.53;;;27.20;99.90;;;;;;4955675;28;20046;-51
2023/06/12 01:32:11;;;;;;;8.18;2.55;;;27.20;99.90;;;;;;4955724;28;20019;-51
2023/06/12 01:34:54;;;;;;;7.07;2.10;;;27.20;99.90;;;;;;4955194;28;20034;-53
2023/06/12 01:37:34;;;;;;;5.22;2.20;;;27.20;99.90;;;;;;4955628;29;20034;-52
2023/06/12 01:40:05;;;;;;;3.70;2.20;;;27.20;99.90;;;;;;4955721;29;20500;-52
2023/06/12 01:42:31;;;;;;;6.43;2.88;;;27.20;99.90;;;;;;4955763;28;20023;-53
2023/06/12 01:44:57;;;;;;;6.70;2.47;;;27.20;99.90;;;;;;4970496;28;20034;-52
2023/06/12 01:47:23;;;;;;;4.82;2.45;;;27.20;99.90;;;;;;4955621;29;20384;-53
2023/06/12 01:49:49;;;;;;;6.15;2.40;;;27.20;99.90;;;;;;4955440;29;20074;-52
2023/06/12 01:52:15;;;;;;;7.43;2.47;;;27.20;99.90;;;;;;4955509;29;20019;-52
2023/06/12 01:54:40;;;;;;;5.82;2.90;;;27.20;99.90;;;;;;4955333;29;20023;-52
2023/06/12 01:57:08;;;;;;;6.68;2.25;;;27.20;99.90;;;;;;4955318;28;20111;-52
2023/06/12 01:59:34;;;;;;;4.80;2.40;;;27.20;99.90;;;;;;4955330;29;20034;-54
2023/06/12 02:02:01;;;;;;;5.18;2.35;;;27.20;99.90;;;;;;4955734;29;20082;-52
2023/06/12 02:04:28;;;;;;;3.97;2.10;;;27.20;99.90;;;;;;4954726;28;20023;-52
2023/06/12 02:06:54;;;;;;;4.47;2.42;;;27.20;99.90;;;;;;4954183;29;20484;-53
2023/06/12 02:09:20;;;;;;;6.93;3.33;;;27.20;99.90;;;;;;4954900;28;20043;-52
2023/06/12 02:11:46;;;;;;;5.20;2.83;;;27.20;99.90;;;;;;4955182;28;20075;-52
2023/06/12 02:14:11;;;;;;;5.25;2.08;;;27.20;99.90;;;;;;4969768;28;20392;-52
2023/06/12 02:16:37;;;;;;;4.50;1.85;;;27.20;99.90;;;;;;4954778;28;20058;-53
2023/06/12 02:19:03;;;;;;;5.20;2.55;;;27.20;99.90;;;;;;4955064;28;20077;-52
2023/06/12 02:21:29;;;;;;;5.13;2.35;;;27.20;99.90;;;;;;4953440;29;20050;-54
2023/06/12 02:23:54;;;;;;;6.55;2.40;;;27.20;99.90;;;;;;4955026;29;20023;-52
2023/06/12 02:26:20;;;;;;;6.53;2.85;;;27.20;99.90;;;;;;4955027;28;20024;-51
2023/06/12 02:29:05;;;;;;;5.13;2.40;;;27.20;99.90;;;;;;4954521;29;20105;-53
2023/06/12 02:31:31;;;;;;;6.43;2.03;;;27.20;99.90;;;;;;4954760;28;20031;-51
2023/06/12 02:33:57;;;;;;;6.97;2.63;;;27.20;99.90;;;;;;4954769;28;20383;-51
2023/06/12 02:36:22;;;;;;;5.68;2.40;;;27.10;99.90;;;;;;4954927;29;20070;-54
2023/06/12 02:38:48;;;;;;;8.00;2.30;;;27.20;99.90;;;;;;4954560;28;20024;-51
2023/06/12 02:41:14;;;;;;;5.55;2.58;;;27.20;99.90;;;;;;4954764;29;20425;-51
2023/06/12 02:43:40;;;;;;;3.45;2.10;;;27.10;99.90;;;;;;4954553;28;20499;-51
2023/06/12 02:46:05;;;;;;;3.40;2.28;;;27.10;99.90;;;;;;4972604;28;20098;-51
2023/06/12 02:48:31;;;;;;;5.88;2.15;;;27.10;99.90;;;;;;4958452;29;20039;-51
2023/06/12 02:50:57;;;;;;;8.15;2.40;;;27.10;99.90;;;;;;4958386;29;20102;-51
2023/06/12 02:53:23;;;;;;;5.03;2.38;;;27.10;99.90;;;;;;4958434;29;20054;-51
2023/06/12 02:55:49;;;;;;;5.10;2.55;;;27.10;99.90;;;;;;4973337;28;20384;-51
2023/06/12 02:58:15;;;;;;;13.07;2.83;;;27.10;99.90;;;;;;4958591;29;20019;-50
2023/06/12 03:00:41;;;;;;;7.30;2.38;;;27.10;99.90;;;;;;4958609;28;20040;-51
2023/06/12 03:03:07;;;;;;;11.82;3.38;;;27.00;99.90;;;;;;4973170;28;20110;-51
2023/06/12 03:05:34;;;;;;;7.72;2.42;;;27.10;99.90;;;;;;4958161;28;20027;-50
2023/06/12 03:08:02;;;;;;;5.47;2.20;;;27.10;99.90;;;;;;4972880;28;20031;-50
2023/06/12 03:10:28;;;;;;;8.60;2.30;;;27.10;99.90;;;;;;4957931;28;20425;-52
2023/06/12 03:12:54;;;;;;;8.98;2.65;;;27.10;99.90;;;;;;4957922;28;20023;-51
2023/06/12 03:15:20;;;;;;;6.93;2.35;;;27.00;99.90;;;;;;4972696;28;20034;-51
2023/06/12 03:17:46;;;;;;;11.82;3.03;;;27.00;99.90;;;;;;4957927;29;20476;-51
2023/06/12 03:20:14;;;;;;;6.97;2.22;;;27.00;99.90;;;;;;4957723;28;20026;-52
2023/06/12 03:22:43;;;;;;;7.18;1.90;;;27.00;99.90;;;;;;4957938;28;20042;-52
2023/06/12 03:25:18;;;;;;;7.57;2.28;;;27.00;99.90;;;;;;4957719;28;20027;-52
2023/06/12 03:27:45;;;;;;;6.38;2.40;;;27.00;99.90;;;;;;4957697;29;20035;-53
2023/06/12 03:30:11;;;;;;;8.95;2.22;;;27.00;99.90;;;;;;4957660;29;20416;-53
2023/06/12 03:32:37;;;;;;;5.55;2.20;;;27.00;99.90;;;;;;4957644;28;20118;-51
2023/06/12 03:35:03;;;;;;;6.05;2.00;;;27.00;99.90;;;;;;4957531;28;20044;-51
2023/06/12 03:37:29;;;;;;;8.38;2.30;;;27.00;99.90;;;;;;4957647;29;20105;-51
2023/06/12 03:39:55;;;;;;;8.25;2.38;;;27.00;99.90;;;;;;4957274;28;20134;-52
2023/06/12 03:42:21;;;;;;;4.63;2.30;;;27.00;99.90;;;;;;4957427;29;20107;-52
2023/06/12 03:44:47;;;;;;;7.18;2.30;;;27.00;99.90;;;;;;4956342;28;20024;-51
2023/06/12 03:47:14;;;;;;;5.80;2.45;;;27.00;99.90;;;;;;4957242;28;20037;-50
2023/06/12 03:49:40;;;;;;;5.95;2.28;;;27.00;99.90;;;;;;4957306;28;20463;-51
2023/06/12 03:52:07;;;;;;;4.28;2.05;;;27.00;99.90;;;;;;4957537;29;20346;-51
2023/06/12 03:54:33;;;;;;;5.67;2.17;;;27.00;99.90;;;;;;4957330;28;20027;-52
2023/06/12 03:57:01;;;;;;;8.02;2.42;;;27.00;99.90;;;;;;4958920;28;20157;-54
2023/06/12 03:59:27;;;;;;;6.00;2.75;;;27.00;99.90;;;;;;4957015;28;20498;-53
2023/06/12 04:01:53;;;;;;;7.03;2.58;;;26.90;99.90;;;;;;4972463;28;20047;-53
2023/06/12 04:04:18;;;;;;;4.88;2.20;;;26.90;99.90;;;;;;4957101;28;20023;-52
2023/06/12 04:06:45;;;;;;;4.47;2.20;;;26.90;99.90;;;;;;4957025;28;20154;-53
2023/06/12 04:09:17;;;;;;;6.00;2.20;;;26.90;99.90;;;;;;4956960;28;20035;-53
2023/06/12 04:11:44;;;;;;;4.72;2.13;;;26.90;99.90;;;;;;4957042;28;20031;-53
2023/06/12 04:14:10;;;;;;;3.85;1.85;;;26.90;99.90;;;;;;4957126;29;20077;-52
2023/06/12 04:16:36;;;;;;;6.18;2.40;;;26.90;99.90;;;;;;4956951;29;20114;-52
2023/06/12 04:19:03;;;;;;;5.25;2.10;;;26.90;99.90;;;;;;4957047;29;20106;-52
2023/06/12 04:21:33;;;;;;;3.92;2.10;;;26.90;99.90;;;;;;4956832;28;20042;-51
2023/06/12 04:24:00;;;;;;;4.07;2.00;;;26.90;99.90;;;;;;4956962;29;20138;-51
2023/06/12 04:26:27;;;;;;;4.40;2.42;;;26.90;99.90;;;;;;4956722;28;20106;-51
2023/06/12 04:28:57;;;;;;;6.88;2.45;;;26.90;99.90;;;;;;4956716;28;20075;-53
2023/06/12 04:31:26;;;;;;;5.10;2.97;;;26.90;99.90;;;;;;4956701;28;20416;-51
2023/06/12 04:33:55;;;;;;;8.07;2.42;;;26.90;99.90;;;;;;4956743;28;20062;-51
2023/06/12 04:36:22;;;;;;;5.20;2.40;;;26.90;99.90;;;;;;4956413;28;20062;-51
2023/06/12 04:38:52;;;;;;;6.05;2.50;;;26.90;99.90;;;;;;4956508;29;20029;-51
2023/06/12 04:41:24;;;;;;;5.25;2.40;;;26.90;99.90;;;;;;4956234;28;20027;-51
2023/06/12 04:43:58;;;;;;;6.22;2.55;;;26.90;99.90;;;;;;4956377;29;20030;-57
2023/06/12 04:46:28;;;;;;;5.70;2.55;;;26.90;99.90;;;;;;4956438;28;20027;-51
2023/06/12 04:48:54;;;;;;;6.43;2.60;;;26.80;99.90;;;;;;4956250;29;20050;-50
2023/06/12 04:51:20;;;;;;;7.00;2.63;;;26.90;99.90;;;;;;4956172;28;20046;-51
2023/06/12 04:53:47;;;;;;;5.38;2.20;;;26.90;99.90;;;;;;4956412;29;20051;-51
2023/06/12 04:56:20;;;;;;;5.63;2.67;;;26.90;99.90;;;;;;4956256;29;20024;-52
2023/06/12 04:58:46;;;;;;;5.38;2.10;;;26.90;99.90;;;;;;4956085;29;20058;-51
2023/06/12 05:01:12;;;;;;;5.97;2.45;;;26.90;99.90;;;;;;4956056;29;20035;-51
2023/06/12 05:03:40;;;;;;;7.57;2.58;;;26.90;99.90;;;;;;4955935;29;20026;-51
2023/06/12 05:06:06;;;;;;;5.68;2.53;;;26.90;99.90;;;;;;4956060;29;20020;-51
2023/06/12 05:08:33;;;;;;;7.78;2.60;;;26.80;99.90;;;;;;4954986;28;20093;-52
2023/06/12 05:10:59;;;;;;;10.85;2.97;;;26.90;99.90;;;;;;4954799;28;20031;-51
2023/06/12 05:13:24;;;;;;;8.73;3.05;;;26.80;99.90;;;;;;4955527;28;20384;-51
2023/06/12 05:15:50;;;;;;;8.68;2.92;;;26.90;99.90;;;;;;4955803;28;20027;-49
2023/06/12 05:18:16;;;;;;;7.57;2.15;;;26.80;99.90;;;;;;4955729;28;20419;-51
2023/06/12 05:20:42;;;;;;;7.00;2.45;;;26.90;99.90;;;;;;4956043;28;20532;-51
2023/06/12 05:23:08;;;;;;;4.57;2.03;;;26.80;99.90;;;;;;4955756;28;20027;-51
2023/06/12 05:25:34;;;;;;;7.40;2.75;;;26.80;99.90;;;;;;4955575;28;20039;-51
2023/06/12 05:27:59;;;;;;;8.18;2.40;;;26.80;99.90;;;;;;4955371;28;20046;-51
2023/06/12 05:30:25;;;;;;;4.13;2.25;;;26.80;99.90;;;;;;4955508;28;20024;-49
2023/06/12 05:32:51;;;;;;;13.25;2.72;;;26.80;99.90;;;;;;4955353;29;20106;-51
2023/06/12 05:35:17;;;;;;;6.47;2.70;;;26.90;99.90;;;;;;4955536;28;20094;-51
2023/06/12 05:37:43;;;;;;;9.93;3.13;;;26.80;99.90;;;;;;4955427;29;20031;-51
2023/06/12 05:40:09;;;;;;;5.85;2.40;;;26.80;99.90;;;;;;4955490;29;20091;-51
2023/06/12 05:42:36;;;;;;;6.97;2.75;;;26.80;99.90;;;;;;4955512;28;20051;-51
2023/06/12 05:45:02;;;;;;;6.40;2.42;;;26.90;99.90;;;;;;4955321;28;20015;-51
2023/06/12 05:47:28;;;;;;;5.10;3.07;;;26.80;99.90;;;;;;4955469;29;20027;-51
2023/06/12 05:49:54;;;;;;;6.43;2.63;;;26.80;99.90;;;;;;4969806;28;20109;-51
2023/06/12 05:52:20;;;;;;;8.25;2.75;;;26.80;99.90;;;;;;4955280;28;20093;-51
2023/06/12 05:54:46;;;;;;;5.13;2.47;;;26.80;99.90;;;;;;4954993;28;20027;-51
2023/06/12 05:57:13;;;;;;;5.97;3.33;;;26.80;99.90;;;;;;4955373;29;20478;-51
2023/06/12 05:59:39;;;;;;;8.63;3.00;;;26.80;99.90;;;;;;4954904;28;20166;-50
2023/06/12 06:02:05;;;;;;;7.70;2.83;;;26.80;99.90;;;;;;4954956;29;20055;-50
2023/06/12 06:04:31;;;;;;;5.43;2.88;;;26.80;99.90;;;;;;4955004;28;20376;-50
2023/06/12 06:06:57;;;;;;;5.88;2.60;;;26.80;99.90;;;;;;4953883;28;20468;-50
2023/06/12 06:09:23;;;;;;;7.72;2.60;;;26.80;99.90;;;;;;4954784;29;20043;-51
2023/06/12 06:11:48;;;;;;;6.93;2.88;;;26.80;99.90;;;;;;4955022;29;20031;-51
2023/06/12 06:14:14;;;;;;;9.18;2.60;;;26.80;99.90;;;;;;4954950;28;20048;-51
2023/06/12 06:16:40;;;;;;;8.52;3.13;;;26.80;99.90;;;;;;4954707;29;20090;-51
2023/06/12 06:19:08;;;;;;;9.15;2.97;;;26.80;99.90;;;;;;4954744;29;20027;-51
2023/06/12 06:21:34;;;;;;;5.45;3.20;;;26.80;99.90;;;;;;4954663;28;20027;-50
2023/06/12 06:24:00;;;;;;;6.63;2.75;;;26.80;99.90;;;;;;4953587;28;20035;-53
2023/06/12 06:26:27;;;;;;;8.82;3.42;;;26.80;99.90;;;;;;4969044;28;20037;-51
2023/06/12 06:28:53;;;;;;;9.48;3.15;;;26.80;99.90;;;;;;4954195;29;20059;-51
2023/06/12 06:31:19;;;;;;;13.88;3.95;;;26.80;99.90;;;;;;4954566;28;20032;-51
2023/06/12 06:33:45;;;;;;;14.25;3.92;;;26.80;99.90;;;;;;4953370;28;20396;-51
2023/06/12 06:36:10;;;;;;;13.07;4.20;;;26.80;99.90;;;;;;4943690;29;20015;-51
2023/06/12 06:38:36;;;;;;;14.27;3.08;;;26.80;99.90;;;;;;4952787;28;20551;-50
2023/06/12 06:41:02;;;;;;;10.88;3.92;;;26.80;99.90;;;;;;4938379;28;20452;-49
2023/06/12 06:43:28;;;;;;;14.50;4.55;;;26.80;99.90;;;;;;4937171;28;20034;-49
2023/06/12 06:45:54;;;;;;;13.45;4.10;;;26.70;99.90;;;;;;4937599;29;20032;-51
2023/06/12 06:48:20;;;;;;;14.27;4.10;;;26.70;99.90;;;;;;4935333;29;20035;-51
2023/06/12 06:50:46;;;;;;;20.58;3.70;;;26.70;99.90;;;;;;4935591;29;20425;-51
2023/06/12 06:53:12;;;;;;;21.85;3.40;;;26.70;99.90;;;;;;4935332;29;20020;-53
2023/06/12 06:55:38;;;;;;;12.45;3.90;;;26.60;99.90;;;;;;4936243;29;20027;-54
2023/06/12 06:58:04;;;;;;;16.35;4.03;;;26.60;99.90;;;;;;4954509;29;20028;-53
2023/06/12 07:00:30;;;;;;;19.42;3.17;;;26.60;99.90;;;;;;4946494;28;20383;-52
2023/06/12 07:02:56;;;;;;;11.25;3.08;;;26.60;99.90;;;;;;4950771;28;20046;-49
2023/06/12 07:05:22;;;;;;;14.80;3.20;;;26.50;99.90;;;;;;4946877;29;20082;-50
2023/06/12 07:07:49;;;;;;;8.13;2.92;;;26.50;99.90;;;;;;4965814;28;20094;-52
2023/06/12 07:10:16;;;;;;;9.82;2.70;;;26.50;99.90;;;;;;4949152;29;20073;-49
2023/06/12 07:12:41;;;;;;;8.15;2.65;;;26.50;99.90;;;;;;4946161;29;20038;-50
2023/06/12 07:15:08;;;;;;;12.50;2.80;;;26.40;99.90;;;;;;4950157;28;20027;-50
2023/06/12 07:17:34;;;;;;;13.52;3.42;;;26.40;99.90;;;;;;4951760;28;20031;-49
2023/06/12 07:20:00;;;;;;;14.88;4.00;;;26.40;99.90;;;;;;4945506;28;20389;-48
2023/06/12 07:22:29;;;;;;;13.60;3.05;;;26.40;99.90;;;;;;4944359;29;20032;-52
2023/06/12 07:24:55;;;;;;;8.82;2.45;;;26.30;99.90;;;;;;4935359;29;20070;-51
2023/06/12 07:27:21;;;;;;;10.27;3.67;;;26.30;99.90;;;;;;4935036;29;20024;-52
2023/06/12 07:29:47;;;;;;;11.68;2.83;;;26.30;99.90;;;;;;4941808;28;20038;-52
2023/06/12 07:32:12;;;;;;;13.32;2.90;;;26.30;99.90;;;;;;4955746;28;20362;-51
2023/06/12 07:34:38;;;;;;;13.60;2.70;;;26.30;99.90;;;;;;4972607;28;20042;-52
2023/06/12 07:37:05;;;;;;;10.23;2.88;;;26.30;99.90;;;;;;4945223;29;20110;-51
2023/06/12 07:39:31;;;;;;;9.13;2.55;;;26.30;99.90;;;;;;4957407;28;20054;-51
2023/06/12 07:41:57;;;;;;;14.52;3.67;;;26.20;99.90;;;;;;4950785;28;20492;-49
2023/06/12 07:44:22;;;;;;;8.32;2.55;;;26.30;99.90;;;;;;4953326;28;20035;-50
2023/06/12 07:46:48;;;;;;;11.55;2.58;;;26.20;99.90;;;;;;4955096;28;20406;-51
2023/06/12 07:49:16;;;;;;;14.20;3.33;;;26.20;99.90;;;;;;4967023;28;20522;-51
2023/06/12 07:51:42;;;;;;;11.05;2.83;;;26.20;99.90;;;;;;4953486;28;20027;-53
2023/06/12 07:54:08;;;;;;;8.18;3.20;;;26.20;99.90;;;;;;4952435;28;20019;-52
2023/06/12 07:56:35;;;;;;;4.63;2.30;;;26.20;99.90;;;;;;4954770;28;20471;-52
2023/06/12 07:59:11;;;;;;;13.38;2.70;;;26.10;99.90;;;;;;4953255;28;20019;-51
2023/06/12 08:01:37;;;;;;;8.82;2.70;;;26.10;99.90;;;;;;4949435;29;20130;-52
2023/06/12 08:04:05;;;;;;;7.22;2.60;;;26.10;99.90;;;;;;4952483;28;20067;-48
2023/06/12 08:06:34;;;;;;;9.95;2.72;;;26.10;99.90;;;;;;4952173;28;20552;-51
2023/06/12 08:09:00;;;;;;;10.88;2.60;;;26.10;99.90;;;;;;4954141;28;20023;-51
2023/06/12 08:11:26;;;;;;;11.15;2.60;;;26.10;99.90;;;;;;4954255;28;20085;-50
2023/06/12 08:13:52;;;;;;;10.68;2.40;;;26.10;99.90;;;;;;4954290;28;20043;-52
2023/06/12 08:16:18;;;;;;;8.80;2.80;;;26.10;99.90;;;;;;4954005;28;20026;-51
2023/06/12 08:18:45;;;;;;;5.95;2.35;;;26.10;99.90;;;;;;4952092;28;20412;-52
2023/06/12 08:21:11;;;;;;;12.10;3.45;;;26.10;99.90;;;;;;4954330;28;20027;-52
2023/06/12 08:23:36;;;;;;;9.57;2.53;;;26.20;99.90;;;;;;4954420;28;20496;-51
2023/06/12 08:26:04;;;;;;;6.95;2.38;;;26.20;99.90;;;;;;4954805;28;20023;-50
2023/06/12 08:28:30;;;;;;;11.60;3.17;;;26.20;99.90;;;;;;4953347;28;20027;-52
2023/06/12 08:30:57;;;;;;;7.38;2.50;;;26.20;99.90;;;;;;4952499;28;20039;-50
2023/06/12 08:33:24;;;;;;;6.72;2.95;;;26.20;99.90;;;;;;4966754;28;20035;-50
2023/06/12 08:35:50;;;;;;;11.40;3.08;;;26.20;99.90;;;;;;4950091;28;20035;-51
2023/06/12 08:38:16;;;;;;;9.57;2.85;;;26.20;99.90;;;;;;4951769;28;20396;-50
2023/06/12 08:40:42;;;;;;;6.97;2.47;;;26.20;99.90;;;;;;4965869;28;20031;-50
2023/06/12 08:43:08;;;;;;;7.03;2.53;;;26.20;99.90;;;;;;4968791;28;20023;-51
2023/06/12 08:45:40;;;;;;;8.35;3.10;;;26.20;99.90;;;;;;4954206;28;20019;-50
2023/06/12 08:48:07;;;;;;;12.30;3.38;;;26.20;99.90;;;;;;4954177;28;20499;-48
2023/06/12 08:50:34;;;;;;;15.55;3.08;;;26.20;99.90;;;;;;4954242;28;20110;-50
2023/06/12 08:53:02;;;;;;;9.77;2.58;;;26.20;99.90;;;;;;4953500;28;20039;-50
2023/06/12 08:55:29;;;;;;;11.27;2.55;;;26.30;99.90;;;;;;4954371;28;20034;-50
2023/06/12 08:57:57;;;;;;;7.05;2.70;;;26.20;99.90;;;;;;4953930;28;20472;-50
2023/06/12 09:00:23;;;;;;;9.43;2.95;;;26.20;99.90;;;;;;4950621;29;20046;-51
2023/06/12 09:02:53;;;;;;;11.02;2.80;;;26.20;99.90;;;;;;4953403;28;20032;-49
2023/06/12 09:05:26;;;;;;;20.17;7.40;;;26.30;99.90;;;;;;4953603;28;20166;-52
2023/06/12 09:07:53;;;;;;;14.18;7.68;;;26.30;99.90;;;;;;4953557;28;20103;-52
2023/06/12 09:10:18;;;;;;;14.50;6.65;;;26.30;99.90;;;;;;4968714;28;20027;-52
2023/06/12 09:12:45;;;;;;;11.60;5.38;;;26.30;99.90;;;;;;4953322;28;20035;-52
2023/06/12 09:15:21;;;;;;;10.00;4.15;;;26.30;99.90;;;;;;4968553;28;20036;-51
2023/06/12 09:17:51;;;;;;;13.35;6.57;;;26.30;99.90;;;;;;4953894;28;20027;-52
2023/06/12 09:20:28;;;;;;;21.00;7.03;;;26.30;99.90;;;;;;4952088;28;20023;-52
2023/06/12 09:23:00;;;;;;;18.23;9.40;;;26.30;99.90;;;;;;4951615;29;20027;-51
2023/06/12 09:25:34;;;;;;;13.57;5.22;;;26.30;99.90;;;;;;4954535;28;20110;-50
2023/06/12 09:28:03;;;;;;;12.15;4.05;;;26.30;99.90;;;;;;4953208;28;20041;-50
2023/06/12 09:30:33;;;;;;;11.10;4.85;;;26.30;99.90;;;;;;4953210;28;20523;-50
2023/06/12 09:33:03;;;;;;;9.85;5.55;;;26.30;99.90;;;;;;4949515;28;20026;-51
2023/06/12 09:35:29;;;;;;;16.55;8.18;;;26.30;99.90;;;;;;4953222;28;20027;-49
2023/06/12 09:37:56;;;;;;;18.95;8.57;;;26.20;99.90;;;;;;4949798;28;20082;-51
2023/06/12 09:40:22;;;;;;;18.40;8.27;;;26.20;99.90;;;;;;4952070;28;20095;-50
2023/06/12 09:42:49;;;;;;;16.15;7.47;;;26.30;99.90;;;;;;4965745;28;20028;-50
2023/06/12 09:45:17;;;;;;;19.80;8.48;;;26.30;99.90;;;;;;4953255;28;20039;-50
2023/06/12 09:47:48;;;;;;;19.00;8.73;;;26.30;99.90;;;;;;4953073;28;20030;-49
2023/06/12 09:50:15;;;;;;;18.48;6.15;;;26.30;99.90;;;;;;4953110;28;20353;-49
2023/06/12 09:52:43;;;;;;;30.15;11.55;;;26.30;99.90;;;;;;4950166;28;20086;-51
2023/06/12 09:55:12;;;;;;;25.67;12.98;;;26.30;99.90;;;;;;4951935;28;20031;-51
2023/06/12 09:57:40;;;;;;;19.17;9.60;;;26.30;99.90;;;;;;4949587;28;20059;-50
2023/06/12 10:00:08;;;;;;;16.35;8.73;;;26.30;99.90;;;;;;4951232;28;20028;-50
2023/06/12 10:02:37;;;;;;;11.15;4.97;;;26.30;99.90;;;;;;4949479;28;20129;-51
2023/06/12 10:05:05;;;;;;;13.55;4.63;;;26.20;99.90;;;;;;4951107;28;20412;-53
2023/06/12 10:07:37;;;;;;;13.77;4.38;;;26.30;99.90;;;;;;4963827;28;20039;-52
2023/06/12 10:10:07;;;;;;;7.78;3.38;;;26.30;99.90;;;;;;4952908;28;20035;-51
2023/06/12 10:12:34;;;;;;;14.57;3.92;;;26.30;99.90;;;;;;4952683;28;20022;-51
2023/06/12 10:15:03;;;;;;;;;;;26.30;99.90;;;;;;4950365;28;20038;-55
2023/06/12 10:17:30;;;;;;;8.15;3.10;;;26.30;99.90;;;;;;4950924;29;20287;-51
2023/06/12 10:19:57;;;;;;;12.85;3.50;;;26.40;99.90;;;;;;4949370;28;20031;-53
2023/06/12 10:22:24;;;;;;;9.68;3.35;;;26.40;99.90;;;;;;4950608;28;20028;-53
2023/06/12 10:24:50;;;;;;;6.53;2.97;;;26.40;99.90;;;;;;4948734;28;20092;-53
2023/06/12 10:27:18;;;;;;;11.05;2.70;;;26.40;99.90;;;;;;4951115;29;20033;-52
2023/06/12 10:29:44;;;;;;;10.95;2.90;;;26.40;99.90;;;;;;4948469;28;20038;-50
2023/06/12 10:32:11;;;;;;;9.38;4.07;;;26.40;99.90;;;;;;4950824;28;20027;-49
2023/06/12 10:34:41;;;;;;;10.23;3.05;;;26.40;99.90;;;;;;4947466;28;20162;-53
2023/06/12 10:37:32;;;;;;;11.32;3.42;;;26.50;99.90;;;;;;4964280;28;20028;-54
2023/06/12 10:40:09;;;;;;;8.98;3.20;;;26.50;99.90;;;;;;4963011;28;20027;-50
2023/06/12 10:42:51;;;;;;;7.68;3.00;;;26.50;99.90;;;;;;4952275;28;20061;-51
2023/06/12 10:45:28;;;;;;;4.93;2.58;;;26.50;99.90;;;;;;4949917;28;20016;-53
2023/06/12 10:48:03;;;;;;;9.25;2.50;;;26.50;99.90;;;;;;4966727;28;20032;-52
2023/06/12 10:50:43;;;;;;;9.05;2.97;;;26.60;99.90;;;;;;4951423;29;20027;-57
2023/06/12 10:53:19;;;;;;;13.85;3.05;;;26.60;99.90;;;;;;4952401;28;20447;-53
2023/06/12 10:55:45;;;;;;;8.50;2.90;;;26.60;99.90;;;;;;4948734;28;20122;-55
2023/06/12 10:58:16;;;;;;;11.73;3.03;;;26.60;99.90;;;;;;4952180;28;20110;-54
2023/06/12 11:00:45;;;;;;;9.25;3.50;;;26.60;99.90;;;;;;4950037;28;20416;-57
2023/06/12 11:03:38;;;;;;;9.38;3.78;;;26.60;99.90;;;;;;4967297;28;20436;-57
2023/06/12 11:06:13;;;;;;;14.60;5.15;;;26.70;99.90;;;;;;4950581;28;20310;-57
2023/06/12 11:08:42;;;;;;;10.60;5.20;;;26.70;99.90;;;;;;4955559;28;20015;-56
2023/06/12 11:11:10;;;;;;;10.48;3.85;;;26.70;99.90;;;;;;4956348;28;20039;-57
2023/06/12 11:13:42;;;;;;;8.05;3.47;;;26.70;99.90;;;;;;4955471;28;20127;-57
2023/06/12 11:16:13;;;;;;;9.25;3.22;;;26.80;99.90;;;;;;4952026;28;20036;-57
2023/06/12 11:18:39;;;;;;;8.07;3.00;;;26.80;99.90;;;;;;4968687;28;20031;-56
2023/06/12 11:21:07;;;;;;;9.38;3.05;;;26.80;99.90;;;;;;4953932;28;20547;-57
2023/06/12 11:23:33;;;;;;;11.73;3.30;;;26.80;99.90;;;;;;4952359;28;20083;-57
2023/06/12 11:26:01;;;;;;;10.80;3.28;;;26.80;99.90;;;;;;4954025;28;20027;-58
2023/06/12 11:28:28;;;;;;;7.25;3.17;;;26.90;99.90;;;;;;4954927;28;20496;-56
2023/06/12 11:30:55;;;;;;;9.40;3.88;;;26.90;99.90;;;;;;4969864;28;20393;-57
2023/06/12 11:33:22;;;;;;;12.57;4.82;;;26.90;99.90;;;;;;4951003;29;20058;-56
2023/06/12 11:35:52;;;;;;;10.50;4.63;;;26.90;99.90;;;;;;4953467;28;20023;-55
2023/06/12 11:38:21;;;;;;;11.52;4.05;;;26.90;99.90;;;;;;4954717;29;20511;-58
2023/06/12 11:40:47;;;;;;;11.75;3.83;;;26.90;99.90;;;;;;4953745;29;20399;-57
2023/06/12 11:43:16;;;;;;;7.03;3.55;;;27.00;99.90;;;;;;4951866;28;20023;-57
2023/06/12 11:45:43;;;;;;;6.78;3.28;;;26.90;99.90;;;;;;4953653;28;20035;-57
2023/06/12 11:48:14;;;;;;;10.45;3.30;;;27.00;99.90;;;;;;4952194;28;20023;-56
2023/06/12 11:50:49;;;;;;;10.57;3.03;;;27.00;99.90;;;;;;4955275;28;20393;-57
2023/06/12 11:53:16;;;;;;;10.30;3.03;;;27.00;99.90;;;;;;4953065;29;20380;-56
2023/06/12 11:55:45;;;;;;;9.75;4.07;;;27.00;99.90;;;;;;4949717;29;20510;-56
2023/06/12 11:58:10;;;;;;;7.85;3.65;;;27.00;99.90;;;;;;4954967;28;20059;-55
2023/06/12 12:00:40;;;;;;;14.07;3.35;;;27.10;99.90;;;;;;4953424;28;20078;-56
2023/06/12 12:03:09;;;;;;;9.40;3.97;;;27.10;99.90;;;;;;4969152;28;20066;-57
2023/06/12 12:05:37;;;;;;;13.02;4.03;;;27.10;99.90;;;;;;4954729;28;20484;-54
2023/06/12 12:08:05;;;;;;;12.05;3.70;;;27.10;99.90;;;;;;4954665;28;20055;-55
2023/06/12 12:10:33;;;;;;;15.45;4.93;;;27.10;99.90;;;;;;4954840;28;20031;-54
2023/06/12 12:13:03;;;;;;;10.32;5.30;;;27.10;99.90;;;;;;4954562;28;20026;-57
2023/06/12 12:15:35;;;;;;;10.27;3.72;;;27.20;99.90;;;;;;4954605;28;20190;-55
2023/06/12 12:18:01;;;;;;;14.02;3.75;;;27.20;99.90;;;;;;4969321;28;20027;-57
2023/06/12 12:20:30;;;;;;;8.32;3.00;;;27.20;99.90;;;;;;4954663;28;20400;-58
2023/06/12 12:22:59;;;;;;;6.03;2.50;;;27.10;99.90;;;;;;4954313;28;20179;-54
2023/06/12 12:25:34;;;;;;;7.93;2.97;;;27.20;99.90;;;;;;4954688;29;20035;-54
2023/06/12 12:28:01;;;;;;;13.25;3.42;;;27.20;99.90;;;;;;4954382;28;20114;-57
2023/06/12 12:30:27;;;;;;;;;;;27.20;99.90;;;;;;4966097;28;20027;-55
2023/06/12 12:32:54;;;;;;;8.35;3.08;;;27.30;99.90;;;;;;4954582;28;20347;-55
2023/06/12 12:35:21;;;;;;;6.97;2.85;;;27.30;99.90;;;;;;4954315;28;20031;-56
2023/06/12 12:37:48;;;;;;;6.38;2.35;;;27.30;99.90;;;;;;4954286;28;20031;-55
2023/06/12 12:40:15;;;;;;;7.68;3.20;;;27.30;99.90;;;;;;4954143;28;20098;-55
2023/06/12 12:42:42;;;;;;;;;;;27.30;99.90;;;;;;4947991;28;20477;-55
2023/06/12 12:45:10;;;;;;;8.55;2.70;;;27.30;99.90;;;;;;4953813;29;19953;-55
2023/06/12 12:47:36;;;;;;;7.68;3.10;;;27.30;99.90;;;;;;4948973;28;20044;-54
2023/06/12 12:50:03;;;;;;;15.75;3.20;;;27.40;99.90;;;;;;4953519;28;20118;-54